createdAt,value
2023-05-06T00:00:32.909Z,13.59
2023-05-06T00:01:33.639Z,13.57
2023-05-06T00:02:34.425Z,13.54
2023-05-06T00:03:35.314Z,13.53
2023-05-06T00:04:36.170Z,13.53
2023-05-06T00:05:36.861Z,13.53
2023-05-06T00:06:37.583Z,13.50
2023-05-06T00:07:38.269Z,13.51
2023-05-06T00:08:38.971Z,13.46
2023-05-06T00:09:39.703Z,13.46
2023-05-06T00:10:40.397Z,13.46
2023-05-06T00:11:41.123Z,13.44
2023-05-06T00:12:41.845Z,13.44
2023-05-06T00:13:42.510Z,13.44
2023-05-06T00:14:43.230Z,13.36
2023-05-06T00:15:43.963Z,13.38
2023-05-06T00:16:44.710Z,13.32
2023-05-06T00:17:45.535Z,13.36
2023-05-06T00:18:46.208Z,13.32
2023-05-06T00:19:46.936Z,13.32
2023-05-06T00:20:47.675Z,13.32
2023-05-06T00:21:48.405Z,13.29
2023-05-06T00:22:49.072Z,13.35
2023-05-06T00:23:49.818Z,13.29
2023-05-06T00:24:50.540Z,13.28
2023-05-06T00:25:51.263Z,13.29
2023-05-06T00:26:51.977Z,13.28
2023-05-06T00:27:52.694Z,13.28
2023-05-06T00:28:53.386Z,13.29
2023-05-06T00:29:54.113Z,13.28
2023-05-06T00:30:54.829Z,13.27
2023-05-06T00:31:55.562Z,13.25
2023-05-06T00:32:56.294Z,13.19
2023-05-06T00:33:57.013Z,13.21
2023-05-06T00:34:57.745Z,13.21
2023-05-06T00:35:58.454Z,13.16
2023-05-06T00:36:59.150Z,13.16
2023-05-06T00:37:59.844Z,13.14
2023-05-06T00:39:00.573Z,13.13
2023-05-06T00:40:01.273Z,13.13
2023-05-06T00:41:01.972Z,13.13
2023-05-06T00:42:02.674Z,13.09
2023-05-06T00:43:03.423Z,13.10
2023-05-06T00:44:04.122Z,13.09
2023-05-06T00:45:04.814Z,13.06
2023-05-06T00:46:05.629Z,13.04
2023-05-06T00:47:06.354Z,13.04
2023-05-06T00:48:07.095Z,13.06
2023-05-06T00:49:07.813Z,13.04
2023-05-06T00:50:08.526Z,13.01
2023-05-06T00:51:09.247Z,13.04
2023-05-06T00:52:09.953Z,13.01
2023-05-06T00:53:10.700Z,12.98
2023-05-06T00:54:11.376Z,12.95
2023-05-06T00:55:12.092Z,12.94
2023-05-06T00:56:12.801Z,12.95
2023-05-06T00:57:13.519Z,12.92
2023-05-06T00:58:14.247Z,12.92
2023-05-06T00:59:14.984Z,12.92
2023-05-06T01:00:15.686Z,12.91
2023-05-06T01:01:16.424Z,12.91
2023-05-06T01:02:17.188Z,12.88
2023-05-06T01:03:17.933Z,12.87
2023-05-06T01:04:18.615Z,12.87
2023-05-06T01:05:19.346Z,12.77
2023-05-06T01:06:20.063Z,12.81
2023-05-06T01:07:20.762Z,12.80
2023-05-06T01:08:21.521Z,12.80
2023-05-06T01:09:22.208Z,12.77
2023-05-06T01:10:22.920Z,12.77
2023-05-06T01:11:23.644Z,12.76
2023-05-06T01:12:24.355Z,12.74
2023-05-06T01:13:25.041Z,12.76
2023-05-06T01:14:25.768Z,12.73
2023-05-06T01:15:26.461Z,12.73
2023-05-06T01:16:27.228Z,12.73
2023-05-06T01:17:27.995Z,12.73
2023-05-06T01:18:28.702Z,12.71
2023-05-06T01:19:29.402Z,12.70
2023-05-06T01:20:30.107Z,12.71
2023-05-06T01:21:30.829Z,12.69
2023-05-06T01:22:31.562Z,12.69
2023-05-06T01:23:32.274Z,12.67
2023-05-06T01:24:33.034Z,12.67
2023-05-06T01:25:33.801Z,12.62
2023-05-06T01:26:34.507Z,12.66
2023-05-06T01:27:35.207Z,12.62
2023-05-06T01:28:35.903Z,12.61
2023-05-06T01:29:36.611Z,12.59
2023-05-06T01:30:37.344Z,12.58
2023-05-06T01:31:38.137Z,12.55
2023-05-06T01:32:38.878Z,12.58
2023-05-06T01:33:39.612Z,12.56
2023-05-06T01:34:40.332Z,12.55
2023-05-06T01:35:41.068Z,12.52
2023-05-06T01:36:41.761Z,12.52
2023-05-06T01:37:42.502Z,12.55
2023-05-06T01:38:43.330Z,12.55
2023-05-06T01:39:44.043Z,12.51
2023-05-06T01:40:44.752Z,12.54
2023-05-06T01:41:45.469Z,12.49
2023-05-06T01:42:46.164Z,12.52
2023-05-06T01:43:46.860Z,12.51
2023-05-06T01:44:47.577Z,12.51
2023-05-06T01:45:48.269Z,12.46
2023-05-06T01:46:49.080Z,12.46
2023-05-06T01:47:49.811Z,12.46
2023-05-06T01:48:50.545Z,12.44
2023-05-06T01:49:51.280Z,12.46
2023-05-06T01:50:51.999Z,12.44
2023-05-06T01:51:52.673Z,12.40
2023-05-06T01:52:53.396Z,12.43
2023-05-06T01:53:54.111Z,12.40
2023-05-06T01:54:54.802Z,12.40
2023-05-06T01:55:55.514Z,12.38
2023-05-06T01:56:56.209Z,12.37
2023-05-06T01:57:56.893Z,12.36
2023-05-06T01:58:59.252Z,12.37
2023-05-06T01:59:58.529Z,12.31
2023-05-06T02:00:59.240Z,12.30
2023-05-06T02:02:00.075Z,12.30
2023-05-06T02:03:00.881Z,12.33
2023-05-06T02:04:01.883Z,12.31
2023-05-06T02:05:02.238Z,12.30
2023-05-06T02:06:02.931Z,12.26
2023-05-06T02:07:03.661Z,12.29
2023-05-06T02:08:04.391Z,12.26
2023-05-06T02:09:05.073Z,12.30
2023-05-06T02:10:05.848Z,12.26
2023-05-06T02:11:06.528Z,12.25
2023-05-06T02:12:07.246Z,12.26
2023-05-06T02:13:08.073Z,12.23
2023-05-06T02:14:08.842Z,12.23
2023-05-06T02:15:09.729Z,12.21
2023-05-06T02:16:10.590Z,12.21
2023-05-06T02:17:11.302Z,12.19
2023-05-06T02:18:12.015Z,12.18
2023-05-06T02:19:12.739Z,12.16
2023-05-06T02:20:13.474Z,12.15
2023-05-06T02:21:14.148Z,12.15
2023-05-06T02:22:14.867Z,12.12
2023-05-06T02:23:15.595Z,12.11
2023-05-06T02:24:16.281Z,12.12
2023-05-06T02:25:17.013Z,12.12
2023-05-06T02:26:17.730Z,12.11
2023-05-06T02:27:18.445Z,12.07
2023-05-06T02:28:19.157Z,12.08
2023-05-06T02:29:19.847Z,12.05
2023-05-06T02:30:20.547Z,12.08
2023-05-06T02:31:21.304Z,12.07
2023-05-06T02:32:22.005Z,12.04
2023-05-06T02:33:22.685Z,12.08
2023-05-06T02:34:23.391Z,12.11
2023-05-06T02:35:24.106Z,12.08
2023-05-06T02:36:24.800Z,12.11
2023-05-06T02:37:25.520Z,12.05
2023-05-06T02:38:26.211Z,12.05
2023-05-06T02:39:26.931Z,12.04
2023-05-06T02:40:27.662Z,12.01
2023-05-06T02:41:28.374Z,11.98
2023-05-06T02:42:29.162Z,11.97
2023-05-06T02:43:29.870Z,11.94
2023-05-06T02:44:30.570Z,11.93
2023-05-06T02:45:31.332Z,11.93
2023-05-06T02:46:32.014Z,11.90
2023-05-06T02:47:32.749Z,11.90
2023-05-06T02:48:33.450Z,11.93
2023-05-06T02:49:34.151Z,11.93
2023-05-06T02:50:34.858Z,11.90
2023-05-06T02:51:35.536Z,11.88
2023-05-06T02:52:36.244Z,11.88
2023-05-06T02:53:36.948Z,11.87
2023-05-06T02:54:37.668Z,11.93
2023-05-06T02:55:38.381Z,11.87
2023-05-06T02:56:39.106Z,11.90
2023-05-06T02:57:39.793Z,11.87
2023-05-06T02:58:40.490Z,11.85
2023-05-06T02:59:41.217Z,11.85
2023-05-06T03:00:41.937Z,11.84
2023-05-06T03:01:42.624Z,11.85
2023-05-06T03:02:53.542Z,11.82
2023-05-06T03:03:43.890Z,11.85
2023-05-06T03:04:44.595Z,11.81
2023-05-06T03:05:45.309Z,11.82
2023-05-06T03:06:46.059Z,11.79
2023-05-06T03:07:46.756Z,11.81
2023-05-06T03:08:47.465Z,11.81
2023-05-06T03:09:48.185Z,11.77
2023-05-06T03:10:48.907Z,11.78
2023-05-06T03:11:49.624Z,11.78
2023-05-06T03:12:50.396Z,11.77
2023-05-06T03:13:51.188Z,11.74
2023-05-06T03:14:51.895Z,11.74
2023-05-06T03:15:52.621Z,11.75
2023-05-06T03:16:53.382Z,11.74
2023-05-06T03:17:54.182Z,11.74
2023-05-06T03:18:54.955Z,11.70
2023-05-06T03:19:55.655Z,11.70
2023-05-06T03:20:56.367Z,11.69
2023-05-06T03:21:57.066Z,11.69
2023-05-06T03:22:57.783Z,11.67
2023-05-06T03:23:58.519Z,11.70
2023-05-06T03:24:59.262Z,11.67
2023-05-06T03:25:59.962Z,11.67
2023-05-06T03:27:00.684Z,11.67
2023-05-06T03:28:01.401Z,11.64
2023-05-06T03:29:02.124Z,11.66
2023-05-06T03:30:02.856Z,11.67
2023-05-06T03:31:03.568Z,11.66
2023-05-06T03:32:04.323Z,11.66
2023-05-06T03:33:05.082Z,11.64
2023-05-06T03:34:05.792Z,11.64
2023-05-06T03:35:06.502Z,11.63
2023-05-06T03:36:07.209Z,11.64
2023-05-06T03:37:07.928Z,11.63
2023-05-06T03:38:08.635Z,11.62
2023-05-06T03:39:09.341Z,11.62
2023-05-06T03:40:10.087Z,11.62
2023-05-06T03:41:10.795Z,11.59
2023-05-06T03:42:11.530Z,11.59
2023-05-06T03:43:12.292Z,11.59
2023-05-06T03:44:12.970Z,11.57
2023-05-06T03:45:13.679Z,11.56
2023-05-06T03:46:14.441Z,11.57
2023-05-06T03:47:15.131Z,11.54
2023-05-06T03:48:15.859Z,11.51
2023-05-06T03:49:16.576Z,11.53
2023-05-06T03:50:17.279Z,11.51
2023-05-06T03:51:18.009Z,11.49
2023-05-06T03:52:18.755Z,11.49
2023-05-06T03:53:19.463Z,11.45
2023-05-06T03:54:20.157Z,11.48
2023-05-06T03:55:20.880Z,11.46
2023-05-06T03:56:22.010Z,11.45
2023-05-06T03:57:22.139Z,11.42
2023-05-06T03:58:22.837Z,11.39
2023-05-06T03:59:23.550Z,11.42
2023-05-06T04:00:24.274Z,11.41
2023-05-06T04:01:24.991Z,11.42
2023-05-06T04:02:25.864Z,11.39
2023-05-06T04:03:26.763Z,11.41
2023-05-06T04:04:27.534Z,11.39
2023-05-06T04:05:28.260Z,11.38
2023-05-06T04:06:28.963Z,11.35
2023-05-06T04:07:29.669Z,11.35
2023-05-06T04:08:30.394Z,11.35
2023-05-06T04:09:31.102Z,11.36
2023-05-06T04:10:31.812Z,11.33
2023-05-06T04:11:32.524Z,11.31
2023-05-06T04:12:33.231Z,11.31
2023-05-06T04:13:33.971Z,11.30
2023-05-06T04:14:34.685Z,11.31
2023-05-06T04:15:35.421Z,11.31
2023-05-06T04:16:36.213Z,11.31
2023-05-06T04:17:36.966Z,11.33
2023-05-06T04:18:37.689Z,11.31
2023-05-06T04:19:38.393Z,11.28
2023-05-06T04:20:39.118Z,11.31
2023-05-06T04:21:39.843Z,11.33
2023-05-06T04:22:40.559Z,11.28
2023-05-06T04:23:41.269Z,11.27
2023-05-06T04:24:42.028Z,11.27
2023-05-06T04:25:42.737Z,11.24
2023-05-06T04:26:43.419Z,11.28
2023-05-06T04:27:44.156Z,11.28
2023-05-06T04:28:44.881Z,11.27
2023-05-06T04:29:45.618Z,11.26
2023-05-06T04:30:46.311Z,11.28
2023-05-06T04:31:47.058Z,11.28
2023-05-06T04:32:47.797Z,11.30
2023-05-06T04:33:48.510Z,11.30
2023-05-06T04:34:49.205Z,11.28
2023-05-06T04:35:49.914Z,11.31
2023-05-06T04:36:50.865Z,11.31
2023-05-06T04:37:51.582Z,11.33
2023-05-06T04:38:52.348Z,11.31
2023-05-06T04:39:53.026Z,11.33
2023-05-06T04:40:53.754Z,11.33
2023-05-06T04:41:54.560Z,11.39
2023-05-06T04:42:55.280Z,11.36
2023-05-06T04:43:55.982Z,11.39
2023-05-06T04:44:56.711Z,11.39
2023-05-06T04:45:57.445Z,11.41
2023-05-06T04:46:58.150Z,11.41
2023-05-06T04:47:58.983Z,11.41
2023-05-06T04:48:59.696Z,11.38
2023-05-06T04:50:00.414Z,11.38
2023-05-06T04:51:01.103Z,11.38
2023-05-06T04:52:01.819Z,11.38
2023-05-06T04:53:02.522Z,11.36
2023-05-06T04:54:03.260Z,11.38
2023-05-06T04:55:03.962Z,11.42
2023-05-06T04:56:04.682Z,11.44
2023-05-06T04:57:05.387Z,11.44
2023-05-06T04:58:06.188Z,11.41
2023-05-06T04:59:06.918Z,11.42
2023-05-06T05:00:07.749Z,11.41
2023-05-06T05:01:08.557Z,11.44
2023-05-06T05:02:09.315Z,11.44
2023-05-06T05:03:10.149Z,11.45
2023-05-06T05:04:10.899Z,11.46
2023-05-06T05:05:11.804Z,11.48
2023-05-06T05:06:12.135Z,11.46
2023-05-06T05:07:12.837Z,11.49
2023-05-06T05:08:13.573Z,11.51
2023-05-06T05:09:14.294Z,11.51
2023-05-06T05:10:15.016Z,11.57
2023-05-06T05:11:15.777Z,11.59
2023-05-06T05:12:16.470Z,11.63
2023-05-06T05:13:17.206Z,11.66
2023-05-06T05:14:17.909Z,11.67
2023-05-06T05:15:18.649Z,11.69
2023-05-06T05:16:19.370Z,11.74
2023-05-06T05:17:20.075Z,11.75
2023-05-06T05:18:20.814Z,11.77
2023-05-06T05:19:21.522Z,11.79
2023-05-06T05:20:22.268Z,11.79
2023-05-06T05:21:22.967Z,11.82
2023-05-06T05:22:23.668Z,11.85
2023-05-06T05:23:24.383Z,11.84
2023-05-06T05:24:25.124Z,11.87
2023-05-06T05:25:25.840Z,11.93
2023-05-06T05:26:26.564Z,11.94
2023-05-06T05:27:27.272Z,11.96
2023-05-06T05:28:27.970Z,12.00
2023-05-06T05:29:28.698Z,12.00
2023-05-06T05:30:29.408Z,12.01
2023-05-06T05:31:30.158Z,12.04
2023-05-06T05:32:30.920Z,12.05
2023-05-06T05:33:31.655Z,12.07
2023-05-06T05:34:32.353Z,12.11
2023-05-06T05:35:33.099Z,12.11
2023-05-06T05:36:33.777Z,12.13
2023-05-06T05:37:34.492Z,12.15
2023-05-06T05:38:35.227Z,12.13
2023-05-06T05:39:35.988Z,12.15
2023-05-06T05:40:36.674Z,12.18
2023-05-06T05:41:37.426Z,12.21
2023-05-06T05:42:38.148Z,12.21
2023-05-06T05:43:38.881Z,12.22
2023-05-06T05:44:39.595Z,12.23
2023-05-06T05:45:40.306Z,12.25
2023-05-06T05:46:41.034Z,12.29
2023-05-06T05:47:41.860Z,12.30
2023-05-06T05:48:42.622Z,12.31
2023-05-06T05:49:43.350Z,12.34
2023-05-06T05:50:44.078Z,12.37
2023-05-06T05:51:44.795Z,12.38
2023-05-06T05:52:45.529Z,12.38
2023-05-06T05:53:46.283Z,12.40
2023-05-06T05:54:47.333Z,12.43
2023-05-06T05:55:48.101Z,12.43
2023-05-06T05:56:48.847Z,12.46
2023-05-06T05:57:49.585Z,12.48
2023-05-06T05:58:50.332Z,12.51
2023-05-06T05:59:51.046Z,12.54
2023-05-06T06:00:51.726Z,12.52
2023-05-06T06:01:52.449Z,12.55
2023-05-06T06:02:53.300Z,12.56
2023-05-06T06:03:54.424Z,12.56
2023-05-06T06:04:54.833Z,12.61
2023-05-06T06:05:55.593Z,12.62
2023-05-06T06:06:56.299Z,12.67
2023-05-06T06:07:57.049Z,12.69
2023-05-06T06:08:57.759Z,12.66
2023-05-06T06:09:58.511Z,12.71
2023-05-06T06:10:59.247Z,12.73
2023-05-06T06:11:59.942Z,12.71
2023-05-06T06:13:00.686Z,12.74
2023-05-06T06:14:01.393Z,12.77
2023-05-06T06:15:02.149Z,12.79
2023-05-06T06:16:02.876Z,12.79
2023-05-06T06:17:03.574Z,12.81
2023-05-06T06:18:04.352Z,12.85
2023-05-06T06:19:05.092Z,12.87
2023-05-06T06:20:05.817Z,12.89
2023-05-06T06:21:06.540Z,12.89
2023-05-06T06:22:07.244Z,12.91
2023-05-06T06:23:07.963Z,12.92
2023-05-06T06:24:08.732Z,12.92
2023-05-06T06:25:09.670Z,12.95
2023-05-06T06:26:12.083Z,12.99
2023-05-06T06:27:10.784Z,13.01
2023-05-06T06:28:11.452Z,12.98
2023-05-06T06:29:12.189Z,13.03
2023-05-06T06:30:12.907Z,13.04
2023-05-06T06:31:13.685Z,13.07
2023-05-06T06:32:14.467Z,13.12
2023-05-06T06:33:15.240Z,13.09
2023-05-06T06:34:15.977Z,13.13
2023-05-06T06:35:16.703Z,13.13
2023-05-06T06:36:17.415Z,13.12
2023-05-06T06:37:18.123Z,13.17
2023-05-06T06:38:18.836Z,13.21
2023-05-06T06:39:19.554Z,13.24
2023-05-06T06:40:20.273Z,13.21
2023-05-06T06:41:20.995Z,13.22
2023-05-06T06:42:21.706Z,13.25
2023-05-06T06:43:22.428Z,13.27
2023-05-06T06:44:23.147Z,13.29
2023-05-06T06:45:23.854Z,13.31
2023-05-06T06:46:24.603Z,13.35
2023-05-06T06:47:25.344Z,13.36
2023-05-06T06:48:26.026Z,13.38
2023-05-06T06:49:26.739Z,13.41
2023-05-06T06:50:27.439Z,13.43
2023-05-06T06:51:28.184Z,13.46
2023-05-06T06:52:28.916Z,13.47
2023-05-06T06:53:29.677Z,13.50
2023-05-06T06:54:30.346Z,13.51
2023-05-06T06:55:31.055Z,13.53
2023-05-06T06:56:31.824Z,13.55
2023-05-06T06:57:32.558Z,13.61
2023-05-06T06:58:33.256Z,13.59
2023-05-06T06:59:34.004Z,13.63
2023-05-06T07:00:34.718Z,13.66
2023-05-06T07:01:35.498Z,13.66
2023-05-06T07:02:36.400Z,13.66
2023-05-06T07:03:37.166Z,13.71
2023-05-06T07:04:38.025Z,13.72
2023-05-06T07:05:38.789Z,13.73
2023-05-06T07:06:39.541Z,13.75
2023-05-06T07:07:40.262Z,13.80
2023-05-06T07:08:41.041Z,13.81
2023-05-06T09:45:45.141Z,20.94
2023-05-06T09:46:47.039Z,20.98
2023-05-06T09:47:47.774Z,20.96
2023-05-06T09:48:48.470Z,20.91
2023-05-06T09:49:49.201Z,20.90
2023-05-06T09:50:49.932Z,20.93
2023-05-06T09:51:50.653Z,20.98
2023-05-06T09:52:51.362Z,20.97
2023-05-06T09:53:52.057Z,21.03
2023-05-06T09:54:52.775Z,21.01
2023-05-06T09:55:53.484Z,21.08
2023-05-06T09:56:54.238Z,21.13
2023-05-06T09:57:54.942Z,21.19
2023-05-06T09:58:55.676Z,21.24
2023-05-06T09:59:56.380Z,21.24
2023-05-06T10:00:57.112Z,21.22
2023-05-06T10:01:57.807Z,21.26
2023-05-06T10:02:58.597Z,21.21
2023-05-06T10:03:59.512Z,21.26
2023-05-06T10:05:00.605Z,21.27
2023-05-06T10:06:00.933Z,21.30
2023-05-06T10:07:01.661Z,21.27
2023-05-06T10:08:02.471Z,21.28
2023-05-06T10:09:03.159Z,21.36
2023-05-06T10:10:04.042Z,21.42
2023-05-06T10:11:04.748Z,21.49
2023-05-06T10:12:05.479Z,21.52
2023-05-06T10:13:06.204Z,21.53
2023-05-06T10:14:07.310Z,21.52
2023-05-06T10:15:07.451Z,21.55
2023-05-06T10:16:08.272Z,21.55
2023-05-06T10:17:09.055Z,21.53
2023-05-06T10:18:09.805Z,21.52
2023-05-06T10:19:10.510Z,21.46
2023-05-06T10:20:11.241Z,21.46
2023-05-06T10:21:11.940Z,21.40
2023-05-06T10:22:12.665Z,21.37
2023-05-06T10:23:13.395Z,21.31
2023-05-06T10:24:14.108Z,21.36
2023-05-06T10:25:15.122Z,21.27
2023-05-06T10:26:15.822Z,21.26
2023-05-06T10:27:16.561Z,21.21
2023-05-06T10:28:30.448Z,21.21
2023-05-06T10:29:18.287Z,21.24
2023-05-06T10:30:18.987Z,21.26
2023-05-06T10:31:19.703Z,21.28
2023-05-06T10:32:20.473Z,21.33
2023-05-06T10:33:21.156Z,21.45
2023-05-06T10:34:21.876Z,21.48
2023-05-06T10:35:22.574Z,21.51
2023-05-06T10:36:23.299Z,21.53
2023-05-06T10:37:24.012Z,21.59
2023-05-06T10:38:24.710Z,21.64
2023-05-06T10:39:25.421Z,21.70
2023-05-06T10:40:26.142Z,21.71
2023-05-06T10:41:26.897Z,21.77
2023-05-06T10:42:27.610Z,21.77
2023-05-06T10:43:28.425Z,21.83
2023-05-06T10:44:29.123Z,21.86
2023-05-06T10:45:29.904Z,21.89
2023-05-06T10:46:30.639Z,21.85
2023-05-06T10:47:31.358Z,21.81
2023-05-06T10:48:32.111Z,21.79
2023-05-06T10:49:33.085Z,21.73
2023-05-06T10:50:33.789Z,21.74
2023-05-06T10:51:34.496Z,21.68
2023-05-06T10:52:35.229Z,21.68
2023-05-06T10:53:35.927Z,21.67
2023-05-06T10:54:36.632Z,21.63
2023-05-06T10:55:37.361Z,21.61
2023-05-06T10:56:38.072Z,21.58
2023-05-06T10:57:38.757Z,21.55
2023-05-06T10:58:39.469Z,21.55
2023-05-06T10:59:40.187Z,21.53
2023-05-06T11:00:40.929Z,21.55
2023-05-06T11:01:41.626Z,21.53
2023-05-06T11:02:42.503Z,21.49
2023-05-06T11:03:42.971Z,21.43
2023-05-06T11:04:43.673Z,21.42
2023-05-06T11:05:44.380Z,21.43
2023-05-06T11:06:45.084Z,21.43
2023-05-06T11:07:45.796Z,21.36
2023-05-06T11:08:46.682Z,21.38
2023-05-06T11:09:47.418Z,21.45
2023-05-06T11:10:48.151Z,21.42
2023-05-06T11:11:48.844Z,21.45
2023-05-06T11:12:49.775Z,21.51
2023-05-06T11:13:50.699Z,21.43
2023-05-06T11:14:51.438Z,21.40
2023-05-06T11:15:52.209Z,21.45
2023-05-06T11:16:52.939Z,21.37
2023-05-06T11:17:53.768Z,21.36
2023-05-06T11:18:54.481Z,21.34
2023-05-06T11:19:55.177Z,21.24
2023-05-06T11:20:55.879Z,21.22
2023-05-06T11:21:56.590Z,21.22
2023-05-06T11:22:57.342Z,21.27
2023-05-06T11:23:58.076Z,21.24
2023-05-06T11:24:58.771Z,21.26
2023-05-06T11:25:59.471Z,21.27
2023-05-06T11:27:00.213Z,21.34
2023-05-06T11:28:01.090Z,21.30
2023-05-06T11:29:01.840Z,21.38
2023-05-06T11:30:02.544Z,21.48
2023-05-06T11:33:02.193Z,21.66
2023-05-06T11:34:02.765Z,21.67
2023-05-06T11:35:03.506Z,21.63
2023-05-06T11:36:04.343Z,21.58
2023-05-06T11:37:05.074Z,21.61
2023-05-06T11:38:05.875Z,21.61
2023-05-06T11:39:06.633Z,21.67
2023-05-06T11:40:07.346Z,21.71
2023-05-06T11:41:08.097Z,21.82
2023-05-06T11:42:08.840Z,21.89
2023-05-06T11:43:09.554Z,21.94
2023-05-06T11:44:11.535Z,22.05
2023-05-06T11:45:11.273Z,22.14
2023-05-06T11:46:12.027Z,22.17
2023-05-06T11:47:12.780Z,22.26
2023-05-06T11:48:13.496Z,22.35
2023-05-06T11:49:14.182Z,22.36
2023-05-06T11:50:14.940Z,22.24
2023-05-06T11:51:15.660Z,22.14
2023-05-06T11:52:16.440Z,21.98
2023-05-06T11:53:17.171Z,21.59
2023-05-06T11:54:17.973Z,21.37
2023-05-06T11:55:18.755Z,21.27
2023-05-06T11:56:19.630Z,21.16
2023-05-06T11:57:20.408Z,21.12
2023-05-06T11:58:21.165Z,21.08
2023-05-06T11:59:21.882Z,21.06
2023-05-06T12:00:22.597Z,21.06
2023-05-06T12:01:23.301Z,21.00
2023-05-06T12:02:24.097Z,20.97
2023-05-06T12:03:25.004Z,21.01
2023-05-06T12:04:26.071Z,21.01
2023-05-06T12:05:26.869Z,21.00
2023-05-06T12:06:27.582Z,20.98
2023-05-06T12:07:28.277Z,20.98
2023-05-06T12:08:28.971Z,20.94
2023-05-06T12:09:29.728Z,20.90
2023-05-06T12:10:30.415Z,20.82
2023-05-06T12:11:31.130Z,20.81
2023-05-06T12:12:31.842Z,20.79
2023-05-06T12:13:32.561Z,20.75
2023-05-06T12:14:33.281Z,20.76
2023-05-06T12:15:34.015Z,20.73
2023-05-06T12:16:34.785Z,20.75
2023-05-06T12:17:35.576Z,20.73
2023-05-06T12:18:36.372Z,20.75
2023-05-06T12:19:37.050Z,20.76
2023-05-06T12:20:37.714Z,20.76
2023-05-06T12:21:38.456Z,20.75
2023-05-06T12:22:39.204Z,20.73
2023-05-06T12:23:39.949Z,20.73
2023-05-06T12:24:40.690Z,20.72
2023-05-06T12:25:41.508Z,20.75
2023-05-06T12:26:42.276Z,20.71
2023-05-06T12:27:43.004Z,20.73
2023-05-06T12:28:43.695Z,20.73
2023-05-06T12:29:44.394Z,20.72
2023-05-06T12:30:45.128Z,20.69
2023-05-06T12:31:45.890Z,20.69
2023-05-06T12:32:46.629Z,20.72
2023-05-06T12:33:47.343Z,20.69
2023-05-06T12:34:48.045Z,20.68
2023-05-06T12:35:48.743Z,20.72
2023-05-06T12:36:49.634Z,20.72
2023-05-06T12:37:50.423Z,20.69
2023-05-06T12:38:51.104Z,20.69
2023-05-06T12:39:51.800Z,20.68
2023-05-06T12:40:52.584Z,20.75
2023-05-06T12:41:53.434Z,20.75
2023-05-06T12:42:54.126Z,20.76
2023-05-06T12:43:54.852Z,20.71
2023-05-06T12:44:55.585Z,20.75
2023-05-06T12:45:57.811Z,20.78
2023-05-06T12:46:56.939Z,20.73
2023-05-06T12:47:57.776Z,20.78
2023-05-06T12:48:58.465Z,20.79
2023-05-06T12:49:59.460Z,20.78
2023-05-06T12:51:00.262Z,20.81
2023-05-06T12:52:00.966Z,20.76
2023-05-06T12:53:01.711Z,20.82
2023-05-06T12:54:02.412Z,20.81
2023-05-06T12:55:03.129Z,20.78
2023-05-06T12:56:03.870Z,20.82
2023-05-06T12:57:04.566Z,20.82
2023-05-06T12:58:05.260Z,20.83
2023-05-06T12:59:05.990Z,20.82
2023-05-06T13:00:07.050Z,20.79
2023-05-06T13:01:07.915Z,20.75
2023-05-06T13:02:08.733Z,20.79
2023-05-06T13:03:09.446Z,20.79
2023-05-06T13:04:10.197Z,20.79
2023-05-06T13:05:10.913Z,20.75
2023-05-06T13:06:11.660Z,20.72
2023-05-06T13:07:12.337Z,20.72
2023-05-06T13:08:13.049Z,20.69
2023-05-06T13:09:15.294Z,20.71
2023-05-06T13:10:14.677Z,20.71
2023-05-06T13:11:15.021Z,20.66
2023-05-06T13:12:15.755Z,20.60
2023-05-06T13:13:16.601Z,20.63
2023-05-06T13:14:17.423Z,20.60
2023-05-06T13:15:18.139Z,20.63
2023-05-06T13:16:18.856Z,20.57
2023-05-06T13:17:19.630Z,20.54
2023-05-06T13:18:20.346Z,20.53
2023-05-06T13:19:31.601Z,20.46
2023-05-06T13:20:22.052Z,20.44
2023-05-06T13:21:22.778Z,20.38
2023-05-06T13:22:23.523Z,20.40
2023-05-06T13:23:24.246Z,20.34
2023-05-06T13:24:24.989Z,20.34
2023-05-06T13:25:25.696Z,20.34
2023-05-06T13:26:26.428Z,20.30
2023-05-06T13:27:27.141Z,20.25
2023-05-06T13:28:27.958Z,20.30
2023-05-06T13:29:28.683Z,20.23
2023-05-06T13:30:29.409Z,20.22
2023-05-06T13:31:30.175Z,20.22
2023-05-06T13:32:30.891Z,20.19
2023-05-06T13:33:31.599Z,20.22
2023-05-06T13:34:32.284Z,20.22
2023-05-06T13:35:32.998Z,20.22
2023-05-06T13:36:33.706Z,20.19
2023-05-06T13:37:34.427Z,20.23
2023-05-06T13:38:35.157Z,20.22
2023-05-06T13:39:35.842Z,20.25
2023-05-06T13:40:36.556Z,20.25
2023-05-06T13:41:37.294Z,20.25
2023-05-06T13:42:38.198Z,20.27
2023-05-06T13:43:38.894Z,20.25
2023-05-06T13:44:39.596Z,20.30
2023-05-06T13:45:40.299Z,20.23
2023-05-06T13:46:41.779Z,20.30
2023-05-06T13:47:41.952Z,20.25
2023-05-06T13:48:42.682Z,20.23
2023-05-06T13:49:43.407Z,20.23
2023-05-06T13:50:44.150Z,20.23
2023-05-06T13:51:44.878Z,20.22
2023-05-06T13:52:45.586Z,20.22
2023-05-06T13:53:46.329Z,20.15
2023-05-06T13:54:47.058Z,20.15
2023-05-06T13:55:47.907Z,20.08
2023-05-06T13:56:48.655Z,19.98
2023-05-06T13:57:49.351Z,19.79
2023-05-06T13:58:50.105Z,19.45
2023-05-06T13:59:50.803Z,19.27
2023-05-06T14:00:51.515Z,19.07
2023-05-06T14:01:52.360Z,18.83
2023-05-06T14:02:53.168Z,18.71
2023-05-06T14:03:53.895Z,18.53
2023-05-06T14:04:54.702Z,18.41
2023-05-06T14:05:55.421Z,18.31
2023-05-06T14:06:56.132Z,18.20
2023-05-06T14:07:56.818Z,17.96
2023-05-06T14:08:57.536Z,17.87
2023-05-06T14:09:58.243Z,17.71
2023-05-06T14:10:58.961Z,17.62
2023-05-06T14:11:59.683Z,17.54
2023-05-06T14:13:00.433Z,17.51
2023-05-06T14:14:01.153Z,17.36
2023-05-06T14:15:01.918Z,17.24
2023-05-06T14:16:02.656Z,17.15
2023-05-06T14:17:03.392Z,17.12
2023-05-06T14:18:04.216Z,17.06
2023-05-06T14:19:04.946Z,16.98
2023-05-06T14:20:05.657Z,16.90
2023-05-06T14:21:06.362Z,16.84
2023-05-06T14:22:07.048Z,16.75
2023-05-06T14:23:07.757Z,16.63
2023-05-06T14:24:08.464Z,16.55
2023-05-06T14:25:09.407Z,16.50
2023-05-06T14:26:09.978Z,16.33
2023-05-06T14:27:10.732Z,16.18
2023-05-06T14:28:11.472Z,16.14
2023-05-06T14:29:12.283Z,16.16
2023-05-06T14:30:13.051Z,16.16
2023-05-06T14:31:13.815Z,16.14
2023-05-06T14:32:14.564Z,16.16
2023-05-06T14:33:15.301Z,16.08
2023-05-06T14:34:16.005Z,16.01
2023-05-06T14:35:16.707Z,15.99
2023-05-06T14:36:17.443Z,16.01
2023-05-06T14:37:18.151Z,16.03
2023-05-06T14:38:18.859Z,16.04
2023-05-06T14:39:19.576Z,16.06
2023-05-06T14:40:21.206Z,16.11
2023-05-06T14:41:21.355Z,16.13
2023-05-06T14:42:22.069Z,16.11
2023-05-06T14:43:22.793Z,16.11
2023-05-06T14:44:23.500Z,16.14
2023-05-06T14:45:24.220Z,16.17
2023-05-06T14:46:27.713Z,16.18
2023-05-06T14:47:25.963Z,16.22
2023-05-06T14:48:26.664Z,16.18
2023-05-06T14:49:27.371Z,16.23
2023-05-06T14:50:28.084Z,16.26
2023-05-06T14:51:28.789Z,16.27
2023-05-06T14:52:29.565Z,16.27
2023-05-06T14:53:30.304Z,16.29
2023-05-06T14:54:30.986Z,16.29
2023-05-06T14:55:31.690Z,16.37
2023-05-06T14:56:32.422Z,16.40
2023-05-06T14:57:33.236Z,16.42
2023-05-06T14:58:34.061Z,16.41
2023-05-06T14:59:34.758Z,16.47
2023-05-06T15:00:35.456Z,16.48
2023-05-06T15:01:36.181Z,16.48
2023-05-06T15:02:36.930Z,16.52
2023-05-06T15:03:37.700Z,16.57
2023-05-06T15:04:38.384Z,16.60
2023-05-06T15:05:39.135Z,16.57
2023-05-06T15:06:39.841Z,16.59
2023-05-06T15:07:40.593Z,16.65
2023-05-06T15:08:41.416Z,16.67
2023-05-06T15:09:42.129Z,16.66
2023-05-06T15:10:42.851Z,16.73
2023-05-06T15:11:43.532Z,16.75
2023-05-06T15:12:44.245Z,16.73
2023-05-06T15:13:44.943Z,16.78
2023-05-06T15:14:45.631Z,16.73
2023-05-06T15:15:46.377Z,16.77
2023-05-06T15:16:47.112Z,16.73
2023-05-06T15:17:47.832Z,16.75
2023-05-06T15:18:48.544Z,16.72
2023-05-06T15:19:49.226Z,16.77
2023-05-06T15:20:49.962Z,16.73
2023-05-06T15:21:50.654Z,16.75
2023-05-06T15:22:51.371Z,16.77
2023-05-06T15:23:52.089Z,16.75
2023-05-06T15:24:52.808Z,16.77
2023-05-06T15:25:53.512Z,16.78
2023-05-06T15:26:54.266Z,16.82
2023-05-06T15:27:54.999Z,16.78
2023-05-06T15:28:55.800Z,16.78
2023-05-06T15:29:56.506Z,16.77
2023-05-06T15:30:57.226Z,16.77
2023-05-06T15:31:57.968Z,16.73
2023-05-06T15:32:58.767Z,16.75
2023-05-06T15:34:00.656Z,16.70
2023-05-06T15:35:00.535Z,16.67
2023-05-06T15:36:01.239Z,16.72
2023-05-06T15:37:01.969Z,16.67
2023-05-06T15:38:02.640Z,16.73
2023-05-06T15:39:03.367Z,16.67
2023-05-06T15:40:04.043Z,16.70